createdAt,value
2022-10-25T00:00:39.986Z,91.50
2022-10-25T00:08:08.419Z,91.80
2022-10-25T00:11:50.330Z,91.90
2022-10-25T00:15:32.038Z,92.00
2022-10-25T00:19:14.310Z,91.90
2022-10-25T00:22:56.046Z,92.00
2022-10-25T00:26:40.371Z,92.10
2022-10-25T00:30:22.038Z,92.00
2022-10-25T00:34:03.918Z,92.00
2022-10-25T00:37:45.637Z,92.30
2022-10-25T00:41:30.362Z,92.00
2022-10-25T00:45:27.803Z,92.10
2022-10-25T00:49:17.009Z,92.20
2022-10-25T00:53:05.589Z,92.10
2022-10-25T00:56:47.369Z,92.10
2022-10-25T01:00:29.086Z,92.00
2022-10-25T01:04:13.031Z,92.00
2022-10-25T01:07:54.727Z,92.00
2022-10-25T01:11:37.908Z,91.90
2022-10-25T01:15:21.594Z,92.20
2022-10-25T01:19:31.074Z,91.90
2022-10-25T01:23:36.933Z,92.40
2022-10-25T01:27:22.882Z,92.20
2022-10-25T01:31:10.325Z,92.10
2022-10-25T01:34:58.137Z,92.30
2022-10-25T01:38:50.327Z,92.40
2022-10-25T01:42:43.643Z,92.30
2022-10-25T01:46:29.765Z,92.30
2022-10-25T01:50:13.716Z,92.30
2022-10-25T01:53:55.710Z,92.20
2022-10-25T01:57:46.583Z,92.10
2022-10-25T02:01:47.583Z,92.20
2022-10-25T02:05:43.529Z,92.20
2022-10-25T02:09:33.667Z,92.20
2022-10-25T02:13:42.585Z,92.30
2022-10-25T02:17:24.558Z,92.40
2022-10-25T02:21:08.499Z,92.20
2022-10-25T02:24:50.454Z,92.20
2022-10-25T02:28:32.126Z,92.20
2022-10-25T02:32:13.858Z,92.10
2022-10-25T02:36:09.748Z,92.00
2022-10-25T02:39:51.441Z,92.10
2022-10-25T02:43:33.433Z,92.00
2022-10-25T02:47:15.118Z,92.00
2022-10-25T02:50:56.971Z,92.00
2022-10-25T02:54:38.686Z,91.90
2022-10-25T02:58:20.358Z,91.80
2022-10-25T03:02:21.171Z,91.80
2022-10-25T03:06:03.068Z,92.00
2022-10-25T03:09:44.719Z,91.90
2022-10-25T03:13:26.471Z,91.90
2022-10-25T03:17:08.183Z,91.80
2022-10-25T03:20:52.059Z,91.80
2022-10-25T03:24:33.751Z,91.80
2022-10-25T03:28:15.498Z,91.70
2022-10-25T03:31:58.286Z,91.70
2022-10-25T03:35:39.954Z,91.70
2022-10-25T03:39:21.627Z,91.60
2022-10-25T03:43:03.431Z,91.50
2022-10-25T03:46:45.082Z,91.60
2022-10-25T03:50:27.907Z,91.50
2022-10-25T03:54:09.571Z,91.50
2022-10-25T03:57:51.255Z,91.50
2022-10-25T04:01:33.123Z,91.50
2022-10-25T04:05:14.928Z,91.40
2022-10-25T04:08:57.303Z,91.30
2022-10-25T04:12:39.002Z,91.20
2022-10-25T04:16:20.772Z,91.20
2022-10-25T04:20:02.465Z,91.10
2022-10-25T04:23:44.407Z,91.10
2022-10-25T04:27:26.090Z,91.10
2022-10-25T04:31:08.010Z,91.10
2022-10-25T04:34:49.783Z,91.10
2022-10-25T04:38:31.500Z,91.10
2022-10-25T04:42:13.528Z,91.10
2022-10-25T04:45:55.358Z,91.10
2022-10-25T04:49:37.115Z,91.30
2022-10-25T04:53:18.918Z,91.70
2022-10-25T04:57:00.602Z,91.50
2022-10-25T05:00:42.569Z,91.70
2022-10-25T05:04:24.259Z,91.80
2022-10-25T05:08:05.928Z,91.90
2022-10-25T05:11:47.849Z,92.00
2022-10-25T05:15:29.953Z,92.10
2022-10-25T05:19:11.629Z,92.10
2022-10-25T05:23:12.195Z,92.30
2022-10-25T05:26:53.886Z,92.10
2022-10-25T05:30:35.663Z,92.00
2022-10-25T05:34:17.438Z,91.90
2022-10-25T05:37:59.162Z,91.90
2022-10-25T05:42:02.491Z,91.80
2022-10-25T05:45:44.212Z,91.80
2022-10-25T05:49:25.945Z,91.60
2022-10-25T05:53:07.766Z,91.80
2022-10-25T05:56:49.462Z,91.30
2022-10-25T06:00:34.363Z,91.30
2022-10-25T06:04:16.433Z,91.30
2022-10-25T06:07:58.113Z,91.20
2022-10-25T06:11:41.077Z,91.20
2022-10-25T06:15:22.811Z,91.20
2022-10-25T06:19:05.954Z,91.10
2022-10-25T06:22:48.986Z,91.00
2022-10-25T06:26:31.050Z,91.10
2022-10-25T06:30:12.804Z,91.20
2022-10-25T06:33:56.710Z,91.20
2022-10-25T06:37:38.363Z,91.50
2022-10-25T06:41:23.156Z,91.50
2022-10-25T06:45:05.333Z,91.70
2022-10-25T06:48:47.135Z,91.70
2022-10-25T06:52:30.001Z,91.70
2022-10-25T06:56:14.603Z,91.80
2022-10-25T06:59:56.740Z,91.90
2022-10-25T07:03:38.852Z,91.90
2022-10-25T07:07:20.595Z,91.90
2022-10-25T07:11:04.658Z,91.90
2022-10-25T07:14:46.666Z,92.00
2022-10-25T07:18:28.857Z,91.90
2022-10-25T07:22:10.582Z,92.00
2022-10-25T07:25:52.239Z,91.90
2022-10-25T07:29:33.999Z,91.90
2022-10-25T07:33:18.290Z,91.80
2022-10-25T07:37:00.169Z,91.90
2022-10-25T07:40:42.439Z,91.80
2022-10-25T07:44:25.122Z,91.90
2022-10-25T07:48:06.964Z,91.80
2022-10-25T07:51:48.958Z,91.90
2022-10-25T07:55:30.627Z,92.10
2022-10-25T07:59:12.324Z,92.10
2022-10-25T08:02:56.437Z,92.00
2022-10-25T08:06:38.149Z,92.00
2022-10-25T08:10:20.655Z,92.10
2022-10-25T08:14:02.439Z,92.00
2022-10-25T08:17:44.467Z,91.90
2022-10-25T08:21:27.674Z,91.90
2022-10-25T08:25:09.715Z,91.90
2022-10-25T08:28:51.391Z,91.80
2022-10-25T08:32:34.359Z,91.70
2022-10-25T08:36:16.140Z,91.70
2022-10-25T08:39:57.858Z,91.70
2022-10-25T08:43:54.659Z,91.60
2022-10-25T08:47:38.460Z,91.70
2022-10-25T08:51:29.075Z,91.70
2022-10-25T08:55:19.560Z,91.60
2022-10-25T08:59:01.893Z,91.50
2022-10-25T09:02:54.291Z,91.40
2022-10-25T09:06:41.847Z,91.30
2022-10-25T09:10:29.899Z,91.20
2022-10-25T09:14:44.923Z,91.20
2022-10-25T09:18:54.115Z,91.20
2022-10-25T09:22:49.349Z,91.20
2022-10-25T09:26:42.280Z,91.10
2022-10-25T09:30:23.979Z,91.10
2022-10-25T09:34:09.560Z,91.00
2022-10-25T09:38:00.950Z,91.00
2022-10-25T09:41:45.705Z,90.80
2022-10-25T09:45:27.358Z,90.90
2022-10-25T09:49:38.698Z,90.70
2022-10-25T09:53:23.995Z,90.50
2022-10-25T09:57:06.050Z,90.60
2022-10-25T10:00:52.368Z,90.30
2022-10-25T10:04:34.975Z,90.30
2022-10-25T10:08:16.740Z,90.20
2022-10-25T10:11:59.418Z,90.40
2022-10-25T10:15:50.041Z,90.10
2022-10-25T10:19:31.799Z,89.90
2022-10-25T10:23:14.030Z,90.00
2022-10-25T10:26:59.533Z,90.00
2022-10-25T10:30:41.562Z,89.40
2022-10-25T10:34:30.472Z,89.30
2022-10-25T10:38:26.549Z,88.80
2022-10-25T10:42:19.068Z,89.40
2022-10-25T10:46:05.947Z,88.70
2022-10-25T10:49:47.655Z,88.10
2022-10-25T10:53:29.915Z,87.30
2022-10-25T10:57:44.553Z,86.70
2022-10-25T11:01:33.442Z,86.20
2022-10-25T11:05:31.318Z,85.90
2022-10-25T11:09:17.991Z,86.30
2022-10-25T11:13:09.324Z,86.80
2022-10-25T11:17:06.498Z,85.10
2022-10-25T11:21:08.463Z,84.70
2022-10-25T11:25:12.107Z,83.50
2022-10-25T11:29:22.151Z,84.30
2022-10-25T11:33:28.423Z,84.20
2022-10-25T11:37:24.352Z,83.70
2022-10-25T11:41:24.675Z,83.20
2022-10-25T11:45:25.866Z,83.50
2022-10-25T11:49:24.808Z,82.30
2022-10-25T11:53:36.304Z,81.80
2022-10-25T11:57:36.361Z,82.30
2022-10-25T12:01:36.887Z,82.30
2022-10-25T12:05:21.432Z,82.70
2022-10-25T12:09:25.039Z,82.40
2022-10-25T12:13:11.857Z,82.10
2022-10-25T12:16:53.550Z,81.70
2022-10-25T12:24:35.826Z,81.40
2022-10-25T12:28:40.599Z,81.30
2022-10-25T12:32:43.390Z,81.70
2022-10-25T12:36:32.295Z,81.10
2022-10-25T12:40:16.295Z,81.10
2022-10-25T12:44:13.058Z,80.70
2022-10-25T12:48:15.985Z,79.70
2022-10-25T12:52:28.374Z,79.80
2022-10-25T12:56:40.701Z,79.80
2022-10-25T13:00:22.738Z,79.90
2022-10-25T13:04:22.982Z,79.70
2022-10-25T13:08:04.942Z,79.00
2022-10-25T13:11:59.563Z,79.60
2022-10-25T13:15:58.983Z,79.90
2022-10-25T13:19:56.316Z,78.70
2022-10-25T13:23:42.197Z,79.30
2022-10-25T13:27:30.729Z,77.90
2022-10-25T13:31:35.762Z,77.80
2022-10-25T13:35:20.443Z,78.60
2022-10-25T13:39:05.399Z,77.20
2022-10-25T13:42:47.813Z,77.70
2022-10-25T13:46:39.890Z,78.20
2022-10-25T13:50:26.757Z,78.00
2022-10-25T13:54:11.834Z,78.60
2022-10-25T13:57:57.814Z,78.60
2022-10-25T14:01:42.867Z,77.50
2022-10-25T14:05:58.718Z,77.20
2022-10-25T14:09:40.414Z,77.40
2022-10-25T14:13:30.794Z,78.20
2022-10-25T14:17:24.641Z,77.60
2022-10-25T14:21:09.962Z,77.90
2022-10-25T14:24:52.934Z,78.10
2022-10-25T14:28:35.963Z,78.30
2022-10-25T14:32:18.747Z,77.60
2022-10-25T14:36:07.633Z,78.50
2022-10-25T14:39:52.493Z,77.00
2022-10-25T14:43:38.278Z,77.70
2022-10-25T14:47:33.125Z,77.20
2022-10-25T14:51:40.782Z,77.00
2022-10-25T14:55:29.443Z,77.30
2022-10-25T14:59:18.646Z,77.30
2022-10-25T15:03:01.763Z,77.80
2022-10-25T15:06:43.550Z,78.00
2022-10-25T15:10:38.894Z,78.40
2022-10-25T15:14:21.110Z,78.00
2022-10-25T15:18:02.970Z,78.40
2022-10-25T15:21:45.554Z,78.00
2022-10-25T15:25:28.958Z,78.50
2022-10-25T15:29:10.609Z,78.80
2022-10-25T15:32:53.508Z,79.40
2022-10-25T15:36:35.176Z,78.70
2022-10-25T15:40:17.262Z,79.30
2022-10-25T15:43:58.952Z,79.00
2022-10-25T15:47:42.427Z,79.40
2022-10-25T15:51:28.774Z,79.60
2022-10-25T15:55:20.434Z,79.80
2022-10-25T15:59:02.576Z,79.50
2022-10-25T16:02:45.761Z,80.20
2022-10-25T16:06:27.624Z,80.60
2022-10-25T16:10:09.425Z,80.10
2022-10-25T16:13:52.206Z,80.30
2022-10-25T16:17:33.875Z,80.50
2022-10-25T16:21:15.679Z,81.50
2022-10-25T16:24:57.346Z,81.20
2022-10-25T16:28:40.852Z,81.30
2022-10-25T16:32:23.902Z,81.60
2022-10-25T16:36:05.958Z,81.90
2022-10-25T16:39:47.615Z,82.20
2022-10-25T16:43:29.575Z,82.30
2022-10-25T16:47:11.432Z,82.50
2022-10-25T16:50:54.356Z,82.90
2022-10-25T16:54:36.019Z,82.90
2022-10-25T16:58:17.703Z,82.90
2022-10-25T17:01:59.536Z,83.10
2022-10-25T17:05:41.252Z,83.40
2022-10-25T17:09:22.935Z,83.50
2022-10-25T17:13:05.735Z,83.50
2022-10-25T17:16:47.474Z,83.70
2022-10-25T17:20:29.253Z,83.90
2022-10-25T17:24:11.494Z,84.00
2022-10-25T17:27:53.523Z,84.20
2022-10-25T17:31:36.065Z,84.40
2022-10-25T17:35:19.658Z,84.60
2022-10-25T17:39:01.361Z,84.80
2022-10-25T17:42:44.459Z,85.00
2022-10-25T17:46:29.039Z,85.90
2022-10-25T17:50:11.085Z,85.40
2022-10-25T17:53:54.393Z,85.40
2022-10-25T17:57:36.066Z,85.50
2022-10-25T18:01:26.455Z,85.90
2022-10-25T18:05:19.785Z,86.10
2022-10-25T18:09:04.736Z,86.10
2022-10-25T18:12:46.876Z,86.20
2022-10-25T18:16:30.889Z,86.30
2022-10-25T18:20:13.419Z,86.60
2022-10-25T18:23:56.427Z,86.60
2022-10-25T18:27:38.130Z,86.60
2022-10-25T18:31:21.265Z,87.30
2022-10-25T18:35:03.066Z,86.90
2022-10-25T18:38:45.622Z,86.80
2022-10-25T18:42:29.620Z,87.10
2022-10-25T18:46:11.340Z,87.10
2022-10-25T18:49:53.112Z,87.20
2022-10-25T18:53:40.955Z,87.20
2022-10-25T18:57:22.629Z,87.30
2022-10-25T19:01:12.181Z,87.40
2022-10-25T19:04:54.040Z,87.60
2022-10-25T19:08:36.021Z,87.50
2022-10-25T19:12:18.001Z,87.60
2022-10-25T19:15:59.777Z,87.80
2022-10-25T19:19:41.444Z,87.90
2022-10-25T19:23:26.210Z,88.50
2022-10-25T19:27:07.964Z,87.90
2022-10-25T19:30:50.695Z,87.90
2022-10-25T19:34:32.408Z,88.00
2022-10-25T19:38:14.507Z,88.00
2022-10-25T19:41:56.395Z,88.10
2022-10-25T19:45:42.014Z,88.20
2022-10-25T19:49:23.687Z,88.30
2022-10-25T19:53:05.603Z,88.30
2022-10-25T19:56:47.336Z,88.30
2022-10-25T20:00:29.173Z,88.30
2022-10-25T20:04:11.551Z,88.50
2022-10-25T20:07:53.215Z,88.30
2022-10-25T20:11:35.108Z,88.40
2022-10-25T20:15:16.986Z,88.40
2022-10-25T20:18:59.604Z,88.40
2022-10-25T20:22:41.333Z,88.40
2022-10-25T20:26:24.144Z,89.10
2022-10-25T20:30:06.263Z,88.60
2022-10-25T20:33:48.088Z,88.60
2022-10-25T20:37:29.865Z,89.40
2022-10-25T20:41:19.439Z,88.80
2022-10-25T20:45:01.181Z,89.10
2022-10-25T20:48:42.972Z,89.10
2022-10-25T20:52:25.880Z,89.10
2022-10-25T20:56:07.565Z,89.40
2022-10-25T20:59:49.366Z,89.50
2022-10-25T21:03:50.341Z,89.60
2022-10-25T21:07:32.382Z,89.80
2022-10-25T21:11:14.255Z,89.60
2022-10-25T21:14:56.022Z,89.60
2022-10-25T21:18:37.832Z,89.70
2022-10-25T21:22:19.645Z,89.80
2022-10-25T21:26:05.431Z,90.10
2022-10-25T21:29:47.234Z,89.70
2022-10-25T21:33:29.135Z,89.80
2022-10-25T21:37:10.807Z,89.80
2022-10-25T21:40:52.670Z,89.80
2022-10-25T21:44:34.399Z,89.90
2022-10-25T21:48:16.061Z,89.90
2022-10-25T21:51:58.037Z,89.90
2022-10-25T21:55:39.830Z,90.00
2022-10-25T21:59:22.014Z,90.00
2022-10-25T22:03:03.805Z,90.00
2022-10-25T22:06:45.488Z,89.90
2022-10-25T22:10:27.232Z,90.00
2022-10-25T22:14:10.513Z,89.90
2022-10-25T22:17:52.185Z,89.90
2022-10-25T22:21:37.577Z,90.00
2022-10-25T22:25:19.278Z,90.10
2022-10-25T22:29:01.039Z,90.00
2022-10-25T22:32:42.738Z,90.00
2022-10-25T22:36:26.251Z,90.00
2022-10-25T22:40:08.278Z,90.00
2022-10-25T22:43:50.066Z,89.90
2022-10-25T22:47:31.742Z,89.90
2022-10-25T22:51:14.763Z,90.00
2022-10-25T22:54:56.441Z,89.90
2022-10-25T22:58:38.400Z,89.90
2022-10-25T23:02:20.232Z,89.90
2022-10-25T23:06:02.272Z,89.90
2022-10-25T23:09:43.938Z,90.00
2022-10-25T23:13:25.680Z,90.10
2022-10-25T23:17:07.359Z,90.20
2022-10-25T23:20:53.891Z,90.30
2022-10-25T23:24:35.577Z,90.40
2022-10-25T23:28:17.277Z,90.40
2022-10-25T23:31:59.250Z,90.50
2022-10-25T23:35:41.458Z,90.60
2022-10-25T23:39:23.142Z,90.70
2022-10-25T23:43:05.920Z,90.90
2022-10-25T23:46:47.651Z,91.10
2022-10-25T23:50:29.463Z,91.10
2022-10-25T23:54:11.149Z,91.40
2022-10-25T23:57:58.934Z,91.20
